Wrangell, Alaska
Current Conditions -  °F | °C
As of 8:56 PM on Friday 19 Dec 2014 (Local Time) from PAWG Reporting Station
Overcast Overcast  
Wind Chill: 35°   Ceiling: 3400
Heat Index: 41°   Visibility: 9mi
Dew Point: 36°   Wind: 9mph
Humidity: 81%   Direction: 90°E
Pressure: 29.27"   Gusts: NA
Location:  56.47°N, 132.38°W
Report Text: PAWG 200556Z 09008KT 9SM SCT029 BKN034 OVC045 05/02 A2927 RMK AO1 WEA: -RA (MCQ) P0001 60003 10070 20050 57007
Loading
Personal Weather Stations






























Interactive Weather Map New forecast layout! Learn more

10-Day Weather Forecast

Advertisements
Track Severe Weather on mobile